Time;durP1;ratioP1;P1;durP2;ratioP2;P2;SDS_P1;SDS_P2;PMS_P1;PMS_P2;Temp;Humidity;BMP_temperature;BMP_pressure;BME280_temperature;BME280_humidity;BME280_pressure;Samples;Min_cycle;Max_cycle;Signal;HPM_P1;HPM_P2
2023/06/03 00:01:40;;;;;;;7.75;2.90;;;14.50;99.90;;;;;;4160066;28;20113;-67
2023/06/03 00:03:44;;;;;;;5.32;2.92;;;14.50;99.90;;;;;;4161683;28;20033;-67
2023/06/03 00:05:44;;;;;;;3.85;2.53;;;14.50;99.90;;;;;;4161182;28;20030;-67
2023/06/03 00:07:45;;;;;;;7.47;3.03;;;14.50;99.90;;;;;;4160110;28;20134;-67
2023/06/03 00:09:46;;;;;;;5.28;2.90;;;14.50;99.90;;;;;;4162981;28;20021;-67
2023/06/03 00:11:46;;;;;;;8.25;2.90;;;14.50;99.90;;;;;;4161328;28;20025;-67
2023/06/03 00:13:47;;;;;;;6.55;2.88;;;14.40;99.90;;;;;;4161613;28;20640;-67
2023/06/03 00:15:48;;;;;;;5.68;2.92;;;14.40;99.90;;;;;;4161322;28;20026;-67
2023/06/03 00:17:49;;;;;;;9.25;3.60;;;14.30;99.90;;;;;;4161487;28;20404;-67
2023/06/03 00:19:49;;;;;;;6.68;2.85;;;14.30;99.90;;;;;;4162687;28;20381;-67
2023/06/03 00:21:50;;;;;;;7.78;2.78;;;14.10;99.90;;;;;;4161702;28;20049;-66
2023/06/03 00:23:50;;;;;;;6.25;2.97;;;14.10;99.90;;;;;;4160195;28;20470;-67
2023/06/03 00:25:51;;;;;;;6.15;3.20;;;14.00;99.90;;;;;;4162168;28;20029;-66
2023/06/03 00:27:52;;;;;;;9.63;3.38;;;13.90;99.90;;;;;;4162816;28;20040;-67
2023/06/03 00:29:52;;;;;;;8.35;3.15;;;13.80;99.90;;;;;;4161617;28;20147;-67
2023/06/03 00:31:53;;;;;;;6.40;3.33;;;13.80;99.90;;;;;;4161724;28;20029;-67
2023/06/03 00:33:54;;;;;;;6.43;2.72;;;13.80;99.90;;;;;;4161669;28;20065;-67
2023/06/03 00:35:54;;;;;;;7.45;2.90;;;13.90;99.90;;;;;;4161876;28;20033;-67
2023/06/03 00:37:55;;;;;;;7.80;3.53;;;13.80;99.90;;;;;;4158204;28;20444;-67
2023/06/03 00:39:56;;;;;;;7.45;3.58;;;13.80;99.90;;;;;;4162321;28;20120;-67
2023/06/03 00:41:58;;;;;;;7.22;3.00;;;13.70;99.90;;;;;;4161345;28;20045;-67
2023/06/03 00:43:58;;;;;;;8.40;3.40;;;13.70;99.90;;;;;;4161847;28;20128;-67
2023/06/03 00:45:59;;;;;;;13.80;3.85;;;13.70;99.90;;;;;;4160083;28;20041;-67
2023/06/03 00:48:00;;;;;;;9.57;3.33;;;13.60;99.90;;;;;;4162240;28;20044;-66
2023/06/03 00:50:01;;;;;;;11.27;3.40;;;13.60;99.90;;;;;;4159136;28;20048;-66
2023/06/03 00:52:06;;;;;;;6.88;3.08;;;13.60;99.90;;;;;;4158913;28;20030;-66
2023/06/03 00:54:06;;;;;;;9.20;3.08;;;13.60;99.90;;;;;;4160312;28;20033;-67
2023/06/03 00:56:07;;;;;;;9.40;3.08;;;13.60;99.90;;;;;;4161316;28;20044;-66
2023/06/03 00:58:08;;;;;;;6.15;2.88;;;13.60;99.90;;;;;;4161539;28;20088;-66
2023/06/03 01:00:09;;;;;;;7.43;3.20;;;13.60;99.90;;;;;;4160596;28;20412;-67
2023/06/03 01:02:12;;;;;;;7.47;3.47;;;13.50;99.90;;;;;;4162293;28;20033;-67
2023/06/03 01:04:16;;;;;;;;;;;13.50;99.90;;;;;;4161247;28;20126;-66
2023/06/03 01:06:45;;;;;;;6.80;2.90;;;13.50;99.90;;;;;;4159949;28;19909;-67
2023/06/03 01:09:25;;;;;;;10.82;3.90;;;13.50;99.90;;;;;;4158876;28;20125;-67
2023/06/03 01:11:53;;;;;;;5.43;3.38;;;13.50;99.90;;;;;;4155163;28;20108;-67
2023/06/03 01:14:03;;;;;;;6.85;3.55;;;13.50;99.90;;;;;;4157614;28;20026;-67
2023/06/03 01:16:06;;;;;;;10.05;3.85;;;13.60;99.90;;;;;;4160499;28;20026;-67
2023/06/03 01:18:06;;;;;;;;;;;13.60;99.90;;;;;;4162541;28;20108;-67
2023/06/03 01:20:10;;;;;;;7.93;3.75;;;13.60;99.90;;;;;;4145477;28;19917;-67
2023/06/03 01:22:12;;;;;;;8.02;3.85;;;13.60;99.90;;;;;;4151100;28;20044;-66
2023/06/03 01:24:19;;;;;;;15.77;3.95;;;13.50;99.90;;;;;;4157705;28;20455;-68
2023/06/03 01:26:22;;;;;;;7.95;3.28;;;13.50;99.90;;;;;;4159963;28;20513;-67
2023/06/03 01:28:23;;;;;;;;;;;13.50;99.90;;;;;;4162464;28;20029;-67
2023/06/03 01:30:24;;;;;;;8.57;3.78;;;13.40;99.90;;;;;;4158593;28;20453;-67
2023/06/03 01:32:25;;;;;;;5.68;3.17;;;13.40;99.90;;;;;;4161279;28;20089;-67
2023/06/03 01:34:27;;;;;;;6.20;3.15;;;13.40;99.90;;;;;;4157625;28;20037;-67
2023/06/03 01:36:28;;;;;;;6.77;3.27;;;13.50;99.90;;;;;;4159064;28;20505;-67
2023/06/03 01:38:29;;;;;;;5.22;2.63;;;13.50;99.90;;;;;;4160585;28;20033;-67
2023/06/03 01:40:30;;;;;;;4.30;2.90;;;13.60;99.90;;;;;;4159047;28;20049;-67
2023/06/03 01:42:31;;;;;;;6.57;2.78;;;13.60;99.90;;;;;;4161738;28;20026;-66
2023/06/03 01:44:31;;;;;;;7.22;3.03;;;13.60;99.90;;;;;;4159502;28;20500;-68
2023/06/03 01:46:33;;;;;;;10.52;3.20;;;13.70;99.90;;;;;;4157547;28;20030;-67
2023/06/03 01:48:33;;;;;;;5.10;2.55;;;13.60;99.90;;;;;;4158032;28;20086;-67
2023/06/03 01:50:34;;;;;;;6.40;2.88;;;13.70;99.90;;;;;;4160054;28;20033;-67
2023/06/03 01:52:35;;;;;;;5.15;2.70;;;13.60;99.90;;;;;;4158110;28;20040;-67
2023/06/03 01:54:36;;;;;;;5.82;3.03;;;13.70;99.90;;;;;;4161034;28;20037;-66
2023/06/03 01:56:36;;;;;;;4.75;2.65;;;13.70;99.90;;;;;;4159826;28;20037;-67
2023/06/03 01:58:38;;;;;;;5.93;3.05;;;13.70;99.90;;;;;;4160569;28;20056;-67
2023/06/03 02:00:38;;;;;;;5.78;3.10;;;13.60;99.90;;;;;;4157331;28;20091;-66
2023/06/03 02:02:39;;;;;;;6.65;2.70;;;13.50;99.90;;;;;;4160849;28;20059;-66
2023/06/03 02:04:44;;;;;;;4.07;2.40;;;13.50;99.90;;;;;;4187227;28;20044;-67
2023/06/03 02:06:52;;;;;;;5.22;3.00;;;13.50;99.90;;;;;;4160684;28;20033;-66
2023/06/03 02:08:53;;;;;;;5.25;2.78;;;13.50;99.90;;;;;;4156466;28;20048;-67
2023/06/03 02:10:53;;;;;;;7.18;2.85;;;13.40;99.90;;;;;;4160716;28;20060;-66
2023/06/03 02:12:54;;;;;;;6.20;3.28;;;13.40;99.90;;;;;;4160482;28;20045;-67
2023/06/03 02:14:56;;;;;;;8.90;3.50;;;13.40;99.90;;;;;;4159493;28;20040;-67
2023/06/03 02:16:57;;;;;;;6.38;3.03;;;13.40;99.90;;;;;;4159903;28;20033;-67
2023/06/03 02:18:57;;;;;;;9.07;3.20;;;13.40;99.90;;;;;;4161051;28;20048;-66
2023/06/03 02:20:58;;;;;;;6.55;3.17;;;13.40;99.90;;;;;;4161134;28;20270;-67
2023/06/03 02:23:01;;;;;;;5.93;2.72;;;13.40;99.90;;;;;;4158837;28;20056;-67
2023/06/03 02:25:03;;;;;;;6.68;3.25;;;13.40;99.90;;;;;;4160682;28;20485;-68
2023/06/03 02:27:04;;;;;;;7.90;3.10;;;13.40;99.90;;;;;;4160595;28;20030;-66
2023/06/03 02:29:08;;;;;;;7.28;3.55;;;13.30;99.90;;;;;;4161285;28;20116;-67
2023/06/03 02:31:08;;;;;;;7.38;2.83;;;13.30;99.90;;;;;;4157781;28;20033;-66
2023/06/03 02:33:09;;;;;;;5.90;2.85;;;13.30;99.90;;;;;;4161079;28;20116;-66
2023/06/03 02:35:09;;;;;;;6.18;3.05;;;13.20;99.90;;;;;;4160867;28;20033;-67
2023/06/03 02:37:16;;;;;;;6.57;3.15;;;13.20;99.90;;;;;;4159727;28;20037;-67
2023/06/03 02:39:17;;;;;;;7.00;3.60;;;13.10;99.90;;;;;;4155889;28;20037;-66
2023/06/03 02:41:18;;;;;;;6.85;3.50;;;13.10;99.90;;;;;;4159359;28;20037;-67
2023/06/03 02:43:18;;;;;;;6.85;3.05;;;13.10;99.90;;;;;;4161109;28;20519;-66
2023/06/03 02:45:19;;;;;;;4.72;2.92;;;13.10;99.90;;;;;;4158376;28;20116;-67
2023/06/03 02:47:20;;;;;;;6.80;3.40;;;13.10;99.90;;;;;;4161092;28;20033;-66
2023/06/03 02:49:20;;;;;;;7.15;3.47;;;13.10;99.90;;;;;;4158156;28;20053;-66
2023/06/03 02:51:21;;;;;;;5.15;3.13;;;13.00;99.90;;;;;;4159264;28;20022;-66
2023/06/03 02:53:22;;;;;;;7.65;3.63;;;13.00;99.90;;;;;;4160223;28;20040;-66
2023/06/03 02:55:23;;;;;;;4.70;3.22;;;12.90;99.90;;;;;;4159324;28;20037;-67
2023/06/03 02:57:24;;;;;;;4.97;2.60;;;12.90;99.90;;;;;;4159309;28;20068;-66
2023/06/03 02:59:24;;;;;;;6.63;2.80;;;12.90;99.90;;;;;;4157365;28;20038;-67
2023/06/03 03:01:26;;;;;;;5.15;2.45;;;12.90;99.90;;;;;;4159214;28;20057;-67
2023/06/03 03:03:27;;;;;;;5.77;3.27;;;12.90;99.90;;;;;;4160626;28;20033;-67
2023/06/03 03:05:30;;;;;;;5.30;3.00;;;12.90;99.90;;;;;;4156028;28;20048;-67
2023/06/03 03:07:32;;;;;;;;;;;12.90;99.90;;;;;;4159715;28;20483;-67
2023/06/03 03:09:34;;;;;;;5.70;3.17;;;12.90;99.90;;;;;;4159165;28;20013;-67
2023/06/03 03:11:35;;;;;;;5.82;3.15;;;12.80;99.90;;;;;;4158348;28;20540;-67
2023/06/03 03:13:36;;;;;;;5.70;3.03;;;12.80;99.90;;;;;;4157048;28;20056;-67
2023/06/03 03:15:37;;;;;;;11.32;3.25;;;12.80;99.90;;;;;;4158147;28;20033;-66
2023/06/03 03:17:37;;;;;;;4.90;3.35;;;12.70;99.90;;;;;;4158305;28;20032;-66
2023/06/03 03:19:38;;;;;;;7.15;3.47;;;12.70;99.90;;;;;;4159916;28;20026;-66
2023/06/03 03:21:38;;;;;;;5.10;3.05;;;12.60;99.90;;;;;;4156531;28;20041;-66
2023/06/03 03:23:39;;;;;;;4.93;2.75;;;12.60;99.90;;;;;;4159634;28;20512;-66
2023/06/03 03:25:40;;;;;;;7.85;3.65;;;12.60;99.90;;;;;;4159794;28;20033;-66
2023/06/03 03:27:41;;;;;;;6.47;3.03;;;12.50;99.90;;;;;;4157150;28;20420;-66
2023/06/03 03:29:45;;;;;;;7.05;3.42;;;12.50;99.90;;;;;;4154852;28;20022;-67
2023/06/03 03:31:45;;;;;;;6.47;3.25;;;12.50;99.90;;;;;;4146518;28;20090;-66
2023/06/03 03:33:49;;;;;;;7.65;3.17;;;12.50;99.90;;;;;;4155706;28;20159;-67
2023/06/03 03:35:50;;;;;;;6.30;3.00;;;12.50;99.90;;;;;;4134699;28;20169;-66
2023/06/03 03:38:11;;;;;;;6.53;3.25;;;12.50;99.90;;;;;;4160084;28;20042;-67
2023/06/03 03:40:20;;;;;;;5.63;2.60;;;12.60;99.90;;;;;;4143166;28;20388;-68
2023/06/03 03:42:21;;;;;;;8.10;3.42;;;12.60;99.90;;;;;;4151448;28;20366;-67
2023/06/03 03:44:23;;;;;;;4.03;2.90;;;12.60;99.90;;;;;;4157359;28;20065;-67
2023/06/03 03:46:23;;;;;;;5.40;3.33;;;12.70;99.90;;;;;;4155271;28;20034;-67
2023/06/03 03:48:28;;;;;;;4.70;2.80;;;12.70;99.90;;;;;;4157442;28;20033;-67
2023/06/03 03:50:45;;;;;;;7.20;3.25;;;12.60;99.90;;;;;;4155054;28;20047;-67
2023/06/03 03:52:45;;;;;;;5.38;2.83;;;12.60;99.90;;;;;;4153098;28;20120;-67
2023/06/03 03:54:46;;;;;;;5.35;2.97;;;12.60;99.90;;;;;;4157924;28;20045;-67
2023/06/03 03:56:46;;;;;;;4.40;2.80;;;12.70;99.90;;;;;;4158168;28;20088;-67
2023/06/03 03:58:48;;;;;;;7.93;2.95;;;12.70;99.90;;;;;;4152461;28;20041;-67
2023/06/03 04:00:50;;;;;;;5.60;3.08;;;12.60;99.90;;;;;;4157144;28;20087;-67
2023/06/03 04:02:51;;;;;;;4.90;3.22;;;12.50;99.90;;;;;;4159488;28;20504;-67
2023/06/03 04:04:52;;;;;;;6.18;3.47;;;12.60;99.90;;;;;;4158494;28;20042;-67
2023/06/03 04:06:54;;;;;;;10.60;3.50;;;12.50;99.90;;;;;;4156847;28;20029;-67
2023/06/03 04:08:56;;;;;;;6.00;3.35;;;12.50;99.90;;;;;;4159335;28;20304;-68
2023/06/03 04:11:00;;;;;;;9.18;3.38;;;12.50;99.90;;;;;;4157338;28;20036;-69
2023/06/03 04:13:05;;;;;;;12.90;3.10;;;12.40;99.90;;;;;;4158375;28;20480;-67
2023/06/03 04:15:06;;;;;;;6.00;3.30;;;12.40;99.90;;;;;;4155581;28;20052;-67
2023/06/03 04:17:08;;;;;;;7.03;3.50;;;12.40;99.90;;;;;;4152300;28;20511;-67
2023/06/03 04:19:33;;;;;;;8.70;3.53;;;12.40;99.90;;;;;;4159716;28;20271;-67
2023/06/03 04:21:38;;;;;;;6.68;3.38;;;12.40;99.90;;;;;;4158716;28;20056;-66
2023/06/03 04:23:38;;;;;;;5.32;2.88;;;12.40;99.90;;;;;;4160567;28;20439;-66
2023/06/03 04:25:41;;;;;;;4.68;2.75;;;12.40;99.90;;;;;;4162017;28;20034;-65
2023/06/03 04:27:42;;;;;;;7.00;3.03;;;12.50;99.90;;;;;;4161515;28;20121;-66
2023/06/03 04:29:42;;;;;;;8.85;2.97;;;12.50;99.90;;;;;;4161681;28;20029;-68
2023/06/03 04:31:43;;;;;;;6.93;3.10;;;12.40;99.90;;;;;;4161884;28;20021;-67
2023/06/03 04:33:44;;;;;;;8.30;3.05;;;12.50;99.90;;;;;;4162003;28;20033;-67
2023/06/03 04:35:44;;;;;;;4.57;2.92;;;12.50;99.90;;;;;;4161154;28;20057;-66
2023/06/03 04:37:45;;;;;;;7.35;2.83;;;12.50;99.90;;;;;;4161142;28;20037;-66
2023/06/03 04:39:46;;;;;;;6.32;3.13;;;12.40;99.90;;;;;;4158359;28;20354;-66
2023/06/03 04:41:46;;;;;;;7.30;3.17;;;12.50;99.90;;;;;;4160238;28;20047;-67
2023/06/03 04:43:47;;;;;;;4.82;2.80;;;12.50;99.90;;;;;;4160363;28;20040;-66
2023/06/03 04:45:54;;;;;;;7.95;2.58;;;12.50;99.90;;;;;;4159890;28;20057;-67
2023/06/03 04:47:58;;;;;;;4.93;2.78;;;12.50;99.90;;;;;;4162474;28;20485;-66
2023/06/03 04:50:00;;;;;;;6.40;2.70;;;12.60;99.90;;;;;;4160579;28;20057;-67
2023/06/03 04:52:01;;;;;;;8.77;2.63;;;12.60;99.90;;;;;;4160295;28;20523;-67
2023/06/03 04:54:03;;;;;;;5.22;2.90;;;12.60;99.90;;;;;;4161974;28;20034;-66
2023/06/03 04:56:04;;;;;;;5.13;2.87;;;12.60;99.90;;;;;;4159278;28;20492;-66
2023/06/03 04:58:05;;;;;;;4.68;2.55;;;12.70;99.90;;;;;;4158604;28;20037;-67
2023/06/03 05:00:07;;;;;;;5.72;2.80;;;12.80;99.90;;;;;;4162100;28;20030;-68
2023/06/03 05:02:08;;;;;;;6.72;2.67;;;12.80;99.90;;;;;;4160435;28;20079;-67
2023/06/03 05:04:13;;;;;;;5.13;2.40;;;12.90;99.90;;;;;;4160843;28;20033;-66
2023/06/03 05:06:14;;;;;;;6.07;2.80;;;12.90;99.90;;;;;;4155165;28;20048;-67
2023/06/03 05:08:15;;;;;;;4.32;2.80;;;12.90;99.90;;;;;;4162247;28;20037;-67
2023/06/03 05:10:15;;;;;;;11.13;3.28;;;13.00;99.90;;;;;;4160561;28;20033;-67
2023/06/03 05:12:18;;;;;;;5.07;2.58;;;13.00;99.90;;;;;;4160688;28;20037;-66
2023/06/03 05:14:19;;;;;;;;;;;13.10;99.90;;;;;;4162352;28;20033;-67
2023/06/03 05:16:19;;;;;;;5.63;2.60;;;13.10;99.90;;;;;;4159612;28;19952;-67
2023/06/03 05:18:20;;;;;;;6.90;2.80;;;13.10;99.90;;;;;;4161791;28;20029;-67
2023/06/03 05:20:20;;;;;;;6.78;3.00;;;13.20;99.90;;;;;;4158203;28;20160;-67
2023/06/03 05:22:21;;;;;;;7.57;3.00;;;13.20;99.90;;;;;;4154101;28;20038;-67
2023/06/03 05:24:22;;;;;;;8.18;2.63;;;13.20;99.90;;;;;;4156921;28;20124;-67
2023/06/03 05:26:22;;;;;;;6.40;2.70;;;13.30;99.90;;;;;;4153365;28;20496;-68
2023/06/03 05:28:25;;;;;;;4.68;2.10;;;13.40;99.90;;;;;;4157615;28;20033;-68
2023/06/03 05:30:25;;;;;;;6.43;2.83;;;13.40;99.90;;;;;;4156232;28;20072;-67
2023/06/03 05:32:26;;;;;;;6.00;2.70;;;13.50;99.90;;;;;;4157544;28;20088;-67
2023/06/03 05:34:26;;;;;;;5.80;2.42;;;13.60;99.90;;;;;;4161162;28;20049;-67
2023/06/03 05:36:27;;;;;;;5.03;2.40;;;13.60;99.90;;;;;;4147914;28;20099;-67
2023/06/03 05:38:27;;;;;;;6.15;2.55;;;13.80;99.90;;;;;;4144037;28;20044;-68
2023/06/03 05:40:28;;;;;;;7.82;2.95;;;13.80;99.90;;;;;;4158094;28;21128;-68
2023/06/03 05:42:28;;;;;;;7.35;2.70;;;13.80;99.90;;;;;;4158507;28;20095;-67
2023/06/03 05:44:31;;;;;;;8.80;2.72;;;13.90;99.90;;;;;;4161346;28;20049;-67
2023/06/03 05:46:32;;;;;;;5.55;2.30;;;14.00;99.90;;;;;;4156872;28;20121;-67
2023/06/03 05:48:32;;;;;;;6.47;2.88;;;14.10;99.90;;;;;;4157907;28;20034;-67
2023/06/03 05:50:37;;;;;;;6.07;2.67;;;14.30;99.90;;;;;;4160298;28;20033;-68
2023/06/03 05:52:37;;;;;;;6.70;2.00;;;14.60;99.90;;;;;;4159626;28;20056;-68
2023/06/03 05:54:38;;;;;;;4.70;2.20;;;15.00;99.90;;;;;;4160581;28;20033;-68
2023/06/03 05:56:38;;;;;;;7.47;2.65;;;15.50;99.90;;;;;;4159145;28;20507;-68
2023/06/03 05:58:39;;;;;;;6.07;2.25;;;15.90;99.90;;;;;;4158360;28;20041;-67
2023/06/03 06:00:40;;;;;;;5.40;2.17;;;16.30;99.90;;;;;;4158280;28;20128;-67
2023/06/03 06:02:41;;;;;;;5.32;2.40;;;16.60;99.90;;;;;;4157453;28;20048;-68
2023/06/03 06:04:41;;;;;;;6.10;2.17;;;16.90;97.90;;;;;;4158835;28;20425;-68
2023/06/03 06:06:42;;;;;;;6.63;2.05;;;17.20;96.90;;;;;;4155972;28;20037;-68
2023/06/03 06:08:43;;;;;;;6.72;2.13;;;17.50;97.80;;;;;;4175376;28;20501;-69
2023/06/03 06:10:43;;;;;;;3.15;1.65;;;17.70;96.40;;;;;;4157245;28;20030;-68
2023/06/03 06:12:44;;;;;;;5.80;2.10;;;17.90;97.00;;;;;;4158929;28;20034;-69
2023/06/03 06:14:45;;;;;;;5.85;1.67;;;18.20;95.70;;;;;;4142982;28;20053;-69
2023/06/03 06:16:46;;;;;;;3.58;1.67;;;18.50;96.20;;;;;;4145696;22;20041;-63
2023/06/03 06:18:48;;;;;;;2.95;1.70;;;18.80;95.40;;;;;;4136733;28;20062;-69
2023/06/03 06:20:49;;;;;;;7.70;1.98;;;19.10;95.10;;;;;;4141690;28;20120;-69
2023/06/03 06:22:50;;;;;;;8.05;1.83;;;19.30;94.10;;;;;;4138257;28;20026;-70
2023/06/03 06:24:51;;;;;;;5.70;1.60;;;19.30;92.10;;;;;;4139538;28;20379;-69
2023/06/03 06:26:51;;;;;;;4.65;1.60;;;19.50;92.20;;;;;;4131146;28;20038;-70
2023/06/03 06:28:52;;;;;;;3.58;1.75;;;19.60;91.80;;;;;;4139463;28;20405;-71
2023/06/03 06:30:54;;;;;;;4.60;1.92;;;19.70;91.10;;;;;;4118414;28;20040;-71
2023/06/03 06:32:55;;;;;;;4.88;2.30;;;19.60;91.00;;;;;;4139645;28;20036;-70
2023/06/03 06:34:56;;;;;;;6.68;2.30;;;19.90;92.70;;;;;;4138534;28;20030;-70
2023/06/03 06:36:58;;;;;;;5.47;1.88;;;19.90;92.20;;;;;;4140618;28;20038;-70
2023/06/03 06:38:59;;;;;;;3.17;1.40;;;19.80;90.10;;;;;;4140865;28;20034;-70
2023/06/03 06:41:03;;;;;;;4.32;1.75;;;19.80;90.00;;;;;;4131513;28;20411;-70
2023/06/03 06:43:05;;;;;;;4.25;1.40;;;19.90;92.30;;;;;;4128690;28;20034;-71
2023/06/03 06:45:30;;;;;;;3.90;1.50;;;20.00;91.40;;;;;;4118735;28;20038;-70
2023/06/03 06:47:36;;;;;;;4.28;1.95;;;20.10;92.30;;;;;;4105685;28;20062;-71
2023/06/03 06:49:36;;;;;;;5.20;1.52;;;19.90;87.90;;;;;;4106307;28;20026;-70
2023/06/03 06:51:37;;;;;;;2.97;1.48;;;19.70;86.80;;;;;;4103267;28;20165;-71
2023/06/03 06:53:38;;;;;;;3.72;1.50;;;19.60;87.80;;;;;;4121111;28;20562;-71
2023/06/03 06:55:46;;;;;;;8.07;1.73;;;19.60;88.40;;;;;;4103136;28;20055;-68
2023/06/03 06:57:46;;;;;;;5.47;1.52;;;19.60;90.40;;;;;;4119231;28;20423;-70
2023/06/03 06:59:48;;;;;;;12.10;2.00;;;19.80;90.60;;;;;;4137782;28;20034;-70
2023/06/03 07:01:49;;;;;;;3.88;1.52;;;19.50;86.30;;;;;;4140702;28;20037;-72
2023/06/03 07:03:50;;;;;;;2.50;1.30;;;19.60;88.60;;;;;;4137265;28;20137;-70
2023/06/03 07:05:53;;;;;;;3.65;1.33;;;19.60;89.10;;;;;;4138865;28;20041;-69
2023/06/03 07:07:54;;;;;;;4.43;1.42;;;19.70;87.50;;;;;;4142671;28;20455;-69
2023/06/03 07:09:55;;;;;;;2.85;1.50;;;19.70;88.80;;;;;;4139108;28;20619;-66
2023/06/03 07:11:57;;;;;;;10.65;1.83;;;19.80;92.00;;;;;;4126373;28;20038;-68
2023/06/03 07:13:57;;;;;;;3.00;1.35;;;19.90;92.10;;;;;;4141967;28;20509;-68
2023/06/03 07:16:00;;;;;;;2.70;1.20;;;20.00;88.70;;;;;;4134594;28;22340;-68
2023/06/03 07:18:00;;;;;;;4.75;1.60;;;20.00;87.10;;;;;;4139026;28;20030;-68
2023/06/03 07:20:05;;;;;;;5.35;1.90;;;19.90;85.90;;;;;;4138201;28;20096;-68
2023/06/03 07:22:07;;;;;;;2.88;1.60;;;19.60;84.60;;;;;;4092060;28;20489;-68
2023/06/03 07:24:11;;;;;;;4.87;1.57;;;19.50;87.00;;;;;;4125627;28;20461;-68
2023/06/03 07:26:13;;;;;;;2.97;1.20;;;19.70;89.00;;;;;;4137602;28;20116;-68
2023/06/03 07:28:28;;;;;;;3.55;1.30;;;19.80;88.70;;;;;;4142873;28;20033;-67
2023/06/03 07:30:28;;;;;;;3.85;1.35;;;19.90;85.40;;;;;;4138402;28;20027;-68
2023/06/03 07:32:30;;;;;;;2.70;1.42;;;19.80;85.20;;;;;;4135415;28;20042;-68
2023/06/03 07:34:33;;;;;;;11.57;1.63;;;20.00;87.00;;;;;;4118449;28;20105;-68
2023/06/03 07:36:34;;;;;;;2.67;1.27;;;19.90;83.70;;;;;;4136696;28;20026;-68
2023/06/03 07:38:37;;;;;;;2.03;1.05;;;19.90;84.50;;;;;;4138973;28;20032;-69
2023/06/03 07:40:41;;;;;;;4.18;1.80;;;20.00;85.50;;;;;;4135544;28;20447;-68
2023/06/03 07:42:45;;;;;;;3.50;1.60;;;20.10;84.10;;;;;;4134883;28;20117;-68
2023/06/03 07:44:48;;;;;;;3.80;1.35;;;20.10;83.80;;;;;;4139304;28;20480;-68
2023/06/03 07:46:56;;;;;;;5.75;1.63;;;20.00;85.40;;;;;;4137467;28;20034;-68
2023/06/03 07:49:01;;;;;;;3.72;1.40;;;20.00;82.00;;;;;;4149644;28;20037;-68
2023/06/03 07:51:03;;;;;;;3.03;1.27;;;20.10;84.60;;;;;;4135389;28;20579;-68
2023/06/03 07:53:04;;;;;;;3.50;1.40;;;20.00;81.10;;;;;;4147251;28;20037;-67
2023/06/03 07:55:07;;;;;;;14.05;1.30;;;20.00;81.60;;;;;;4139779;28;20030;-67
2023/06/03 07:57:08;;;;;;;2.20;1.33;;;20.10;88.00;;;;;;4144376;28;20180;-68
2023/06/03 07:59:10;;;;;;;2.20;1.10;;;20.10;83.10;;;;;;4139597;28;20038;-68
2023/06/03 08:01:11;;;;;;;2.58;1.08;;;20.30;91.70;;;;;;4140110;28;20395;-69
2023/06/03 08:03:19;;;;;;;2.60;1.10;;;20.40;89.00;;;;;;4145196;28;20040;-68
2023/06/03 08:05:33;;;;;;;3.90;1.10;;;20.50;82.50;;;;;;4139398;28;20041;-68
2023/06/03 08:07:34;;;;;;;1.30;0.85;;;20.70;88.90;;;;;;4141643;28;20109;-68
2023/06/03 08:09:36;;;;;;;1.45;0.90;;;20.70;86.90;;;;;;4145309;28;20052;-70
2023/06/03 08:11:37;;;;;;;2.30;1.10;;;20.80;78.60;;;;;;4142538;28;20034;-72
2023/06/03 08:13:40;;;;;;;4.78;1.02;;;20.60;76.80;;;;;;4146912;28;20030;-72
2023/06/03 08:15:43;;;;;;;3.97;1.25;;;20.60;80.50;;;;;;4138124;28;20503;-71
2023/06/03 08:17:49;;;;;;;3.58;1.38;;;20.70;77.40;;;;;;4146211;28;20453;-71
2023/06/03 08:19:50;;;;;;;2.75;1.25;;;20.60;76.50;;;;;;4144777;28;20038;-73
2023/06/03 08:21:52;;;;;;;2.85;1.38;;;20.90;85.60;;;;;;4135104;28;20483;-72
2023/06/03 08:23:53;;;;;;;3.92;1.17;;;21.00;81.30;;;;;;4151894;28;20030;-72
2023/06/03 08:25:56;;;;;;;2.35;1.00;;;20.90;81.00;;;;;;4140994;28;20022;-72
2023/06/03 08:27:57;;;;;;;2.97;0.85;;;20.80;77.90;;;;;;4141903;28;20033;-71
2023/06/03 08:29:58;;;;;;;3.35;1.00;;;21.00;81.30;;;;;;4148715;28;20069;-71
2023/06/03 08:31:58;;;;;;;3.10;0.90;;;21.00;77.20;;;;;;4128743;28;20049;-73
2023/06/03 08:34:01;;;;;;;5.75;1.48;;;21.00;76.30;;;;;;4144259;28;20538;-73
2023/06/03 08:36:02;;;;;;;1.55;0.70;;;21.10;77.60;;;;;;4145021;28;20038;-72
2023/06/03 08:38:03;;;;;;;2.58;1.25;;;21.00;75.80;;;;;;4144684;28;20283;-73
2023/06/03 08:40:07;;;;;;;3.80;1.20;;;20.80;74.90;;;;;;4144659;28;20041;-72
2023/06/03 08:42:12;;;;;;;3.63;1.70;;;20.80;80.00;;;;;;4142479;28;20105;-72
2023/06/03 08:44:46;;;;;;;14.90;1.45;;;20.90;74.80;;;;;;4131198;28;20792;-73
2023/06/03 08:47:15;;;;;;;1.33;0.85;;;20.90;79.00;;;;;;4123630;28;20054;-72
2023/06/03 08:49:25;;;;;;;3.53;1.30;;;21.20;85.90;;;;;;4126196;28;20034;-71
2023/06/03 08:51:26;;;;;;;1.50;0.90;;;21.20;78.90;;;;;;4100833;28;20488;-71
2023/06/03 08:53:30;;;;;;;2.00;0.82;;;21.10;72.30;;;;;;4111556;28;20038;-71
2023/06/03 08:55:34;;;;;;;2.63;1.05;;;21.00;72.40;;;;;;4126595;28;20422;-72
2023/06/03 08:58:03;;;;;;;3.47;1.10;;;20.80;71.60;;;;;;4148022;28;20368;-72
2023/06/03 09:00:05;;;;;;;5.47;1.10;;;21.00;76.50;;;;;;4106381;28;20026;-70
2023/06/03 09:02:07;;;;;;;1.50;1.10;;;21.10;74.20;;;;;;4135473;28;20487;-72
2023/06/03 09:04:11;;;;;;;3.33;1.25;;;21.20;75.70;;;;;;4129673;28;20034;-71
2023/06/03 09:06:13;;;;;;;2.65;0.93;;;21.10;74.20;;;;;;4128029;28;20019;-73
2023/06/03 09:08:16;;;;;;;4.18;1.30;;;21.20;76.90;;;;;;4145207;28;20117;-71
2023/06/03 09:10:20;;;;;;;2.35;1.20;;;21.20;73.20;;;;;;4137765;28;20493;-72
2023/06/03 09:12:21;;;;;;;3.30;1.25;;;21.30;75.80;;;;;;4128532;28;20030;-71
2023/06/03 09:14:23;;;;;;;4.40;1.17;;;21.20;71.70;;;;;;4146223;28;20045;-71
2023/06/03 09:16:24;;;;;;;2.67;1.08;;;21.20;69.40;;;;;;4123296;28;20042;-71
2023/06/03 09:18:25;;;;;;;2.63;1.13;;;21.30;74.60;;;;;;4143110;28;20026;-71
2023/06/03 09:20:29;;;;;;;3.80;1.05;;;21.20;73.00;;;;;;4141702;28;20050;-69
2023/06/03 09:22:30;;;;;;;5.47;0.98;;;21.20;72.40;;;;;;4128592;28;20035;-71
2023/06/03 09:24:31;;;;;;;5.47;1.35;;;21.30;74.70;;;;;;4137129;28;20038;-71
2023/06/03 09:26:32;;;;;;;3.40;1.25;;;21.30;72.10;;;;;;4142602;28;20030;-71
2023/06/03 09:28:35;;;;;;;13.93;1.30;;;21.30;72.00;;;;;;4138452;28;20040;-72
2023/06/03 09:30:36;;;;;;;2.03;1.25;;;21.40;72.30;;;;;;4125416;28;20062;-72
2023/06/03 09:32:38;;;;;;;2.17;1.13;;;21.50;70.80;;;;;;4138638;28;20520;-72
2023/06/03 09:34:39;;;;;;;3.70;0.90;;;21.70;81.30;;;;;;4141156;28;20383;-72
2023/06/03 09:36:47;;;;;;;1.33;0.93;;;21.80;78.20;;;;;;4142502;28;20022;-68
2023/06/03 09:38:51;;;;;;;3.72;1.73;;;22.00;75.80;;;;;;4143325;28;20026;-69
2023/06/03 09:40:51;;;;;;;3.75;1.23;;;22.00;72.80;;;;;;4142602;28;20560;-67
2023/06/03 09:42:52;;;;;;;2.47;1.48;;;22.00;72.50;;;;;;4132189;28;20117;-68
2023/06/03 09:44:55;;;;;;;2.67;1.20;;;21.80;71.30;;;;;;4136856;28;20034;-69
2023/06/03 09:46:56;;;;;;;3.75;1.20;;;21.80;71.50;;;;;;4137489;28;20672;-66
2023/06/03 09:49:12;;;;;;;3.33;1.73;;;21.90;73.60;;;;;;4159352;28;20045;-68
2023/06/03 09:51:13;;;;;;;5.22;1.20;;;21.80;68.80;;;;;;4143860;28;20494;-68
2023/06/03 09:53:21;;;;;;;3.50;1.30;;;21.90;71.80;;;;;;4142185;28;20038;-68
2023/06/03 09:55:29;;;;;;;3.88;1.58;;;22.00;70.50;;;;;;4132851;28;20038;-67
2023/06/03 09:57:30;;;;;;;2.85;1.48;;;22.00;67.20;;;;;;4145222;28;20041;-68
2023/06/03 09:59:30;;;;;;;2.95;1.30;;;22.00;69.10;;;;;;4127429;28;20391;-67
2023/06/03 10:01:31;;;;;;;3.22;1.38;;;22.00;68.70;;;;;;4143184;28;20034;-67
2023/06/03 10:03:32;;;;;;;3.88;1.80;;;21.90;71.10;;;;;;4143018;28;20030;-68
2023/06/03 10:05:34;;;;;;;3.97;1.50;;;21.80;67.70;;;;;;4144023;28;20053;-68
2023/06/03 10:07:46;;;;;;;3.92;1.48;;;22.00;71.80;;;;;;4144029;28;20038;-67
2023/06/03 10:09:47;;;;;;;6.13;1.33;;;22.00;68.60;;;;;;4143327;28;20045;-68
2023/06/03 10:11:50;;;;;;;4.55;1.35;;;21.90;66.20;;;;;;4143337;28;20044;-67
2023/06/03 10:14:04;;;;;;;2.13;1.45;;;21.90;69.30;;;;;;4137322;28;20037;-68
2023/06/03 10:16:10;;;;;;;5.57;1.77;;;21.90;70.90;;;;;;4138843;28;20214;-67
2023/06/03 10:18:11;;;;;;;5.35;1.80;;;21.90;65.80;;;;;;4155730;28;20026;-68
2023/06/03 10:20:29;;;;;;;6.93;2.08;;;21.80;68.20;;;;;;4136212;28;20034;-67
2023/06/03 10:22:30;;;;;;;4.70;1.70;;;21.80;66.50;;;;;;4131268;28;20057;-68
2023/06/03 10:24:37;;;;;;;5.55;1.75;;;21.80;71.60;;;;;;4127094;28;20168;-68
2023/06/03 10:26:38;;;;;;;5.75;1.60;;;21.70;65.80;;;;;;4128699;28;20046;-67
2023/06/03 10:28:39;;;;;;;1.20;1.10;;;21.70;65.20;;;;;;4137496;28;20034;-68
2023/06/03 10:30:41;;;;;;;3.88;1.42;;;21.80;65.40;;;;;;4134514;28;20037;-68
2023/06/03 10:32:44;;;;;;;4.47;1.42;;;21.90;65.90;;;;;;4155084;28;20116;-68
2023/06/03 10:34:47;;;;;;;4.72;1.55;;;21.80;65.90;;;;;;4139643;28;20030;-67
2023/06/03 10:36:56;;;;;;;3.70;1.50;;;21.90;65.90;;;;;;4124245;28;20034;-69
2023/06/03 10:39:00;;;;;;;2.95;1.40;;;21.90;66.00;;;;;;4145011;28;20033;-66
2023/06/03 10:41:01;;;;;;;5.38;1.60;;;21.80;65.90;;;;;;4143475;28;20056;-68